Waters Bluff, Texas
Current Conditions -  °F | °C
As of 3:53 AM on Monday 22 Dec 2014 (Local Time) from KTYR Reporting Station
Overcast Overcast  
Wind Chill: 55°   Ceiling: 1300
Heat Index: 55°   Visibility: 10mi
Dew Point: 50°   Wind: 14mph
Humidity: 83%   Direction: 180°S
Pressure: 29.7"   Gusts: NA
Location:  32.4644°N, 95.1125°W
Report Text: KTYR 220953Z AUTO 18012KT 10SM BKN013 OVC020 13/10 A2970 RMK AO2 SLP056 T01280100
Loading
Personal Weather Stations






























Interactive Weather Map New forecast layout! Learn more

10-Day Weather Forecast

Advertisements
Track Severe Weather on mobile